createdAt,value
2019-03-27T00:01:13.368Z,7.13
2019-03-27T00:03:43.924Z,7.50
2019-03-27T00:06:14.058Z,7.77
2019-03-27T00:08:45.329Z,6.83
2019-03-27T00:11:16.389Z,7.27
2019-03-27T00:13:46.949Z,7.70
2019-03-27T00:16:17.449Z,7.50
2019-03-27T00:18:47.954Z,6.93
2019-03-27T00:21:18.491Z,7.40
2019-03-27T00:23:48.965Z,6.87
2019-03-27T00:26:18.558Z,7.77
2019-03-27T00:28:48.959Z,8.00
2019-03-27T00:31:19.367Z,7.87
2019-03-27T00:33:49.802Z,8.63
2019-03-27T00:36:19.413Z,8.10
2019-03-27T00:38:49.696Z,8.80
2019-03-27T00:41:20.427Z,8.90
2019-03-27T00:43:50.859Z,9.67
2019-03-27T00:46:21.331Z,9.40
2019-03-27T00:48:51.798Z,8.93
2019-03-27T00:51:21.317Z,9.63
2019-03-27T00:53:51.718Z,8.80
2019-03-27T00:56:22.186Z,10.50
2019-03-27T00:58:52.646Z,10.50
2019-03-27T01:01:22.245Z,9.93
2019-03-27T01:03:51.997Z,10.07
2019-03-27T01:06:22.437Z,10.40
2019-03-27T01:08:52.936Z,10.90
2019-03-27T01:11:23.368Z,9.40
2019-03-27T01:13:53.783Z,10.40
2019-03-27T01:16:23.369Z,11.43
2019-03-27T01:18:53.786Z,11.07
2019-03-27T01:21:24.237Z,10.70
2019-03-27T01:23:54.636Z,11.63
2019-03-27T01:26:24.268Z,10.17
2019-03-27T01:28:54.650Z,11.23
2019-03-27T01:31:25.075Z,11.30
2019-03-27T01:33:55.844Z,10.10
2019-03-27T01:36:26.399Z,10.53
2019-03-27T01:38:56.025Z,10.40
2019-03-27T01:41:26.384Z,10.53
2019-03-27T01:43:55.957Z,10.80
2019-03-27T01:46:26.297Z,11.43
2019-03-27T01:48:56.815Z,11.47
2019-03-27T01:51:27.324Z,10.40
2019-03-27T01:53:57.810Z,10.83
2019-03-27T01:56:28.261Z,10.60
2019-03-27T01:58:58.739Z,9.53
2019-03-27T02:01:28.345Z,10.17
2019-03-27T02:03:58.713Z,10.73
2019-03-27T02:06:29.211Z,11.07
2019-03-27T02:08:59.690Z,11.80
2019-03-27T02:11:29.249Z,9.93
2019-03-27T02:13:59.649Z,11.33
2019-03-27T02:16:30.125Z,11.03
2019-03-27T02:19:00.815Z,10.37
2019-03-27T02:21:30.385Z,11.43
2019-03-27T02:23:59.831Z,10.97
2019-03-27T02:26:29.585Z,11.83
2019-03-27T02:28:59.904Z,12.13
2019-03-27T02:31:30.443Z,11.23
2019-03-27T02:34:00.938Z,12.37
2019-03-27T02:36:31.414Z,11.03
2019-03-27T02:39:01.007Z,11.93
2019-03-27T02:41:31.369Z,12.40
2019-03-27T02:44:01.851Z,12.33
2019-03-27T02:46:32.294Z,12.27
2019-03-27T02:49:01.830Z,11.97
2019-03-27T02:51:32.424Z,12.37
2019-03-27T02:54:02.946Z,13.90
2019-03-27T02:56:33.473Z,12.60
2019-03-27T02:59:03.114Z,13.33
2019-03-27T03:01:32.605Z,11.93
2019-03-27T03:04:03.151Z,12.87
2019-03-27T03:06:33.599Z,13.40
2019-03-27T03:09:05.469Z,14.47
2019-03-27T03:11:35.063Z,13.40
2019-03-27T03:14:05.460Z,14.10
2019-03-27T03:16:42.721Z,12.40
2019-03-27T03:19:08.106Z,13.63
2019-03-27T03:21:37.724Z,13.30
2019-03-27T03:24:08.177Z,14.27
2019-03-27T03:26:38.660Z,14.87
2019-03-27T03:29:09.148Z,13.73
2019-03-27T03:31:38.731Z,13.80
2019-03-27T03:34:09.173Z,16.97
2019-03-27T03:36:39.601Z,14.63
2019-03-27T03:39:09.211Z,14.73
2019-03-27T03:41:38.737Z,13.97
2019-03-27T03:44:09.113Z,14.90
2019-03-27T03:46:39.635Z,15.37
2019-03-27T03:49:10.113Z,14.03
2019-03-27T03:51:40.872Z,17.93
2019-03-27T03:54:11.588Z,15.33
2019-03-27T03:56:42.737Z,15.47
2019-03-27T03:59:15.330Z,15.07
2019-03-27T04:01:48.015Z,15.97
2019-03-27T04:04:22.032Z,15.97
2019-03-27T04:06:52.417Z,15.07
2019-03-27T04:09:22.913Z,13.70
2019-03-27T04:11:53.296Z,15.93
2019-03-27T04:14:23.713Z,15.97
2019-03-27T04:16:54.179Z,15.13
2019-03-27T04:19:24.675Z,15.10
2019-03-27T04:21:55.125Z,16.43
2019-03-27T04:24:25.611Z,15.37
2019-03-27T04:26:56.069Z,15.50
2019-03-27T04:29:26.649Z,15.53
2019-03-27T04:31:56.323Z,16.73
2019-03-27T04:34:25.832Z,16.80
2019-03-27T04:36:56.204Z,17.43
2019-03-27T04:39:25.773Z,16.83
2019-03-27T04:41:56.165Z,16.17
2019-03-27T04:44:26.594Z,16.90
2019-03-27T04:46:56.212Z,16.87
2019-03-27T04:49:25.706Z,17.40
2019-03-27T04:51:56.094Z,18.00
2019-03-27T04:54:27.034Z,17.63
2019-03-27T04:56:57.701Z,17.57
2019-03-27T04:59:28.199Z,17.03
2019-03-27T05:01:57.788Z,19.77
2019-03-27T05:04:28.827Z,19.07
2019-03-27T05:06:59.298Z,17.33
2019-03-27T05:09:29.782Z,18.57
2019-03-27T05:12:00.534Z,19.37
2019-03-27T05:14:30.475Z,18.43
2019-03-27T05:17:00.878Z,18.03
2019-03-27T05:19:31.377Z,18.70
2019-03-27T05:22:01.773Z,17.20
2019-03-27T05:24:32.137Z,18.90
2019-03-27T05:27:01.756Z,18.00
2019-03-27T05:29:31.255Z,17.27
2019-03-27T05:32:01.653Z,17.50
2019-03-27T05:34:32.107Z,17.23
2019-03-27T05:37:02.569Z,17.70
2019-03-27T05:39:33.060Z,17.10
2019-03-27T05:42:02.658Z,17.13
2019-03-27T05:44:33.090Z,16.70
2019-03-27T05:47:02.705Z,17.93
2019-03-27T05:49:32.206Z,17.40
2019-03-27T05:52:02.585Z,17.97
2019-03-27T05:54:32.593Z,18.13
2019-03-27T05:57:03.029Z,19.90
2019-03-27T05:59:33.577Z,19.30
2019-03-27T06:02:03.113Z,19.80
2019-03-27T06:04:34.290Z,19.57
2019-03-27T06:07:04.780Z,19.47
2019-03-27T06:09:35.247Z,18.10
2019-03-27T06:12:05.957Z,19.73
2019-03-27T06:14:36.390Z,20.23
2019-03-27T06:17:06.879Z,20.83
2019-03-27T06:19:37.329Z,16.87
2019-03-27T06:22:07.825Z,18.77
2019-03-27T06:24:37.643Z,19.83
2019-03-27T06:27:08.037Z,20.47
2019-03-27T06:29:38.418Z,18.97
2019-03-27T06:32:08.184Z,18.37
2019-03-27T06:34:38.559Z,18.70
2019-03-27T06:37:08.105Z,19.23
2019-03-27T06:39:38.481Z,19.80
2019-03-27T06:42:08.043Z,19.80
2019-03-27T06:44:38.366Z,19.27
2019-03-27T06:47:07.896Z,19.70
2019-03-27T06:49:38.195Z,18.13
2019-03-27T06:52:07.798Z,19.50
2019-03-27T06:54:37.308Z,18.13
2019-03-27T06:57:06.789Z,18.53
2019-03-27T06:59:36.252Z,18.43
2019-03-27T07:02:05.775Z,19.13
2019-03-27T07:04:36.146Z,20.13
2019-03-27T07:07:05.728Z,21.13
2019-03-27T07:09:36.041Z,19.47
2019-03-27T07:12:20.187Z,17.43
2019-03-27T07:14:38.614Z,19.33
2019-03-27T07:17:09.073Z,19.27
2019-03-27T07:19:39.565Z,18.77
2019-03-27T07:22:09.954Z,19.37
2019-03-27T07:24:40.517Z,18.10
2019-03-27T07:27:10.994Z,20.77
2019-03-27T07:29:41.484Z,21.00
2019-03-27T07:32:11.936Z,20.50
2019-03-27T07:34:42.425Z,19.63
2019-03-27T07:37:12.792Z,21.37
2019-03-27T07:39:43.256Z,21.17
2019-03-27T07:42:13.676Z,21.40
2019-03-27T07:44:43.269Z,19.97
2019-03-27T07:47:13.547Z,19.43
2019-03-27T07:49:44.115Z,19.03
2019-03-27T07:52:14.582Z,18.50
2019-03-27T07:54:45.053Z,20.43
2019-03-27T07:57:14.650Z,19.87
2019-03-27T07:59:45.060Z,20.03
2019-03-27T08:02:14.578Z,19.80
2019-03-27T08:04:45.078Z,20.53
2019-03-27T08:07:26.223Z,20.33
2019-03-27T08:09:46.689Z,21.20
2019-03-27T08:12:16.188Z,20.90
2019-03-27T08:14:46.592Z,20.00
2019-03-27T08:17:16.266Z,19.63
2019-03-27T08:19:46.713Z,20.73
2019-03-27T08:22:17.176Z,20.67
2019-03-27T08:24:48.129Z,19.43
2019-03-27T08:27:17.625Z,19.33
2019-03-27T08:29:47.940Z,20.50
2019-03-27T08:32:18.334Z,19.87
2019-03-27T08:34:48.808Z,20.03
2019-03-27T08:37:19.258Z,19.60
2019-03-27T08:39:49.718Z,18.97
2019-03-27T08:42:20.149Z,20.13
2019-03-27T08:44:50.627Z,19.97
2019-03-27T08:47:21.212Z,19.77
2019-03-27T08:49:51.637Z,18.90
2019-03-27T08:52:21.216Z,19.20
2019-03-27T08:54:51.525Z,18.47
2019-03-27T08:57:21.990Z,17.27
2019-03-27T08:59:52.500Z,18.73
2019-03-27T09:02:22.088Z,18.57
2019-03-27T09:04:52.468Z,17.23
2019-03-27T09:07:23.005Z,18.53
2019-03-27T09:09:53.506Z,19.57
2019-03-27T09:12:23.083Z,18.87
2019-03-27T09:14:53.717Z,18.83
2019-03-27T09:17:24.183Z,18.73
2019-03-27T09:19:53.778Z,18.93
2019-03-27T09:22:23.285Z,18.20
2019-03-27T09:24:52.796Z,19.27
2019-03-27T09:27:23.317Z,19.70
2019-03-27T09:29:53.810Z,17.87
2019-03-27T09:32:24.276Z,18.30
2019-03-27T09:34:54.757Z,18.27
2019-03-27T09:37:25.131Z,17.23
2019-03-27T09:39:54.738Z,17.47
2019-03-27T09:42:24.517Z,16.60
2019-03-27T09:44:54.934Z,17.73
2019-03-27T09:47:25.456Z,17.30
2019-03-27T09:49:55.954Z,17.03
2019-03-27T09:52:26.411Z,16.67
2019-03-27T09:54:56.166Z,15.97
2019-03-27T09:57:26.509Z,16.43
2019-03-27T09:59:56.065Z,17.10
2019-03-27T10:02:26.710Z,16.70
2019-03-27T10:04:56.392Z,16.37
2019-03-27T10:07:26.817Z,15.87
2019-03-27T10:09:56.442Z,16.17
2019-03-27T10:12:26.786Z,16.87
2019-03-27T10:14:56.317Z,16.20
2019-03-27T10:17:26.661Z,16.63
2019-03-27T10:20:03.204Z,15.93
2019-03-27T10:22:27.377Z,15.20
2019-03-27T10:24:56.850Z,16.23
2019-03-27T10:27:27.176Z,15.67
2019-03-27T10:29:57.622Z,15.83
2019-03-27T10:32:28.105Z,15.20
2019-03-27T10:34:58.537Z,15.73
2019-03-27T10:37:28.956Z,15.73
2019-03-27T10:39:59.373Z,16.23
2019-03-27T10:42:29.778Z,15.53
2019-03-27T10:45:00.396Z,16.20
2019-03-27T10:47:31.156Z,16.97
2019-03-27T10:50:01.599Z,15.57
2019-03-27T10:52:32.090Z,14.80
2019-03-27T10:55:02.802Z,16.97
2019-03-27T10:57:32.327Z,16.23
2019-03-27T11:00:02.842Z,16.20
2019-03-27T11:02:33.305Z,15.87
2019-03-27T11:05:02.893Z,15.53
2019-03-27T11:07:33.274Z,15.67
2019-03-27T11:10:03.927Z,14.00
2019-03-27T11:12:33.589Z,14.80
2019-03-27T11:15:04.094Z,15.57
2019-03-27T11:17:34.564Z,14.10
2019-03-27T11:20:05.512Z,14.60
2019-03-27T11:22:35.101Z,14.63
2019-03-27T11:25:06.964Z,14.33
2019-03-27T11:27:37.466Z,14.50
2019-03-27T11:30:08.175Z,13.87
2019-03-27T11:32:37.685Z,15.27
2019-03-27T11:35:08.346Z,14.27
2019-03-27T11:37:38.849Z,14.63
2019-03-27T11:40:09.410Z,13.13
2019-03-27T11:42:39.990Z,13.37
2019-03-27T11:45:10.718Z,12.13
2019-03-27T11:47:41.220Z,13.97
2019-03-27T11:50:11.799Z,13.53
2019-03-27T11:52:42.309Z,13.67
2019-03-27T11:55:11.938Z,12.93
2019-03-27T11:57:41.456Z,11.07
2019-03-27T12:00:13.133Z,13.57
2019-03-27T12:02:43.641Z,12.60
2019-03-27T12:05:13.681Z,13.00
2019-03-27T12:07:43.213Z,12.03
2019-03-27T12:10:12.865Z,12.83
2019-03-27T12:12:43.260Z,11.87
2019-03-27T12:15:13.348Z,13.57
2019-03-27T12:17:43.826Z,11.97
2019-03-27T12:20:13.536Z,11.60
2019-03-27T12:22:56.925Z,11.63
2019-03-27T12:25:16.076Z,10.40
2019-03-27T12:27:46.588Z,11.40
2019-03-27T12:30:16.173Z,11.37
2019-03-27T12:32:46.592Z,11.80
2019-03-27T12:35:17.046Z,12.43
2019-03-27T12:37:47.515Z,11.53
2019-03-27T12:40:17.962Z,11.47
2019-03-27T12:42:48.457Z,10.93
2019-03-27T12:45:18.045Z,11.17
2019-03-27T12:47:48.457Z,10.47
2019-03-27T12:50:18.905Z,9.83
2019-03-27T12:52:48.436Z,9.63
2019-03-27T12:55:18.058Z,9.70
2019-03-27T12:57:48.434Z,11.00
2019-03-27T13:00:19.241Z,11.37
2019-03-27T13:02:49.735Z,11.07
2019-03-27T13:05:19.590Z,10.57
2019-03-27T13:07:50.499Z,9.83
2019-03-27T13:10:20.974Z,9.87
2019-03-27T13:12:51.457Z,10.30
2019-03-27T13:15:21.916Z,11.40
2019-03-27T13:17:51.515Z,10.37
2019-03-27T13:20:21.033Z,10.20
2019-03-27T13:22:51.358Z,10.50
2019-03-27T13:25:21.829Z,9.90
2019-03-27T13:27:51.448Z,9.60
2019-03-27T13:30:20.954Z,10.80
2019-03-27T13:32:50.481Z,8.93
2019-03-27T13:35:20.876Z,9.40
2019-03-27T13:37:51.349Z,8.73
2019-03-27T13:40:20.952Z,8.90
2019-03-27T13:42:51.310Z,8.43
2019-03-27T13:45:20.917Z,8.50
2019-03-27T13:47:51.217Z,9.00
2019-03-27T13:50:21.605Z,8.13
2019-03-27T13:52:51.077Z,10.50
2019-03-27T13:55:20.604Z,9.60
2019-03-27T13:57:50.960Z,10.13
2019-03-27T14:00:20.601Z,9.30
2019-03-27T14:02:51.109Z,10.20
2019-03-27T14:05:21.594Z,8.20
2019-03-27T14:07:52.033Z,8.53
2019-03-27T14:10:21.905Z,7.60
2019-03-27T14:12:51.309Z,8.53
2019-03-27T14:15:21.036Z,9.47
2019-03-27T14:17:50.505Z,8.57
2019-03-27T14:20:20.333Z,8.77
2019-03-27T14:22:49.764Z,9.47
2019-03-27T14:25:21.950Z,8.70
2019-03-27T14:27:50.652Z,9.87
2019-03-27T14:30:39.015Z,9.13
2019-03-27T14:33:09.354Z,9.27
2019-03-27T14:35:38.949Z,9.10
2019-03-27T14:38:09.278Z,9.33
2019-03-27T14:40:39.679Z,9.60
2019-03-27T14:43:10.106Z,9.10
2019-03-27T14:45:39.714Z,9.50
2019-03-27T14:48:10.061Z,8.73
2019-03-27T14:50:39.591Z,8.37
2019-03-27T14:53:09.092Z,8.10
2019-03-27T14:55:38.593Z,8.50
2019-03-27T14:58:08.901Z,9.07
2019-03-27T15:00:39.356Z,8.23
2019-03-27T15:03:08.959Z,9.33
2019-03-27T15:05:39.384Z,9.10
2019-03-27T15:08:10.196Z,8.50
2019-03-27T15:10:39.780Z,8.47
2019-03-27T15:13:10.768Z,7.90
2019-03-27T15:15:41.234Z,8.10
2019-03-27T15:18:11.800Z,8.57
2019-03-27T15:20:42.303Z,8.90
2019-03-27T15:23:11.892Z,8.87
2019-03-27T15:25:42.597Z,10.33
2019-03-27T15:28:13.042Z,8.40
2019-03-27T15:30:43.434Z,8.93
2019-03-27T15:33:13.861Z,9.17
2019-03-27T15:35:44.790Z,9.17
2019-03-27T15:38:15.246Z,9.17
2019-03-27T15:40:46.663Z,8.90
2019-03-27T15:43:16.236Z,8.97
2019-03-27T15:45:45.696Z,8.00
2019-03-27T15:48:16.097Z,8.43
2019-03-27T15:50:56.946Z,8.07
2019-03-27T15:53:17.985Z,8.17
2019-03-27T15:55:48.401Z,8.93
2019-03-27T15:58:18.825Z,8.57
2019-03-27T16:00:49.307Z,9.33
2019-03-27T16:03:19.786Z,8.40
2019-03-27T16:05:49.321Z,8.37
2019-03-27T16:08:18.806Z,8.43
2019-03-27T16:10:48.248Z,7.47
2019-03-27T16:13:17.818Z,8.17
2019-03-27T16:15:48.259Z,8.33
2019-03-27T16:18:18.685Z,9.07
2019-03-27T16:20:48.313Z,8.23
2019-03-27T16:23:17.841Z,7.17
2019-03-27T16:25:47.358Z,8.63
2019-03-27T16:28:16.828Z,7.70
2019-03-27T16:30:46.393Z,8.70
2019-03-27T16:33:16.081Z,8.27
2019-03-27T16:35:45.539Z,6.77
2019-03-27T16:38:15.922Z,8.57
2019-03-27T16:40:55.306Z,7.63
2019-03-27T16:43:25.367Z,7.77
2019-03-27T16:45:54.796Z,6.50
2019-03-27T16:48:25.155Z,7.27
2019-03-27T16:50:54.766Z,8.10
2019-03-27T16:53:24.304Z,7.60
2019-03-27T16:55:53.843Z,7.37
2019-03-27T16:58:24.183Z,7.67
2019-03-27T17:00:53.782Z,6.70
2019-03-27T17:03:23.211Z,6.93
2019-03-27T17:05:54.236Z,6.97
2019-03-27T17:08:23.998Z,7.57
2019-03-27T17:10:53.400Z,7.33
2019-03-27T17:13:23.038Z,7.50
2019-03-27T17:15:52.589Z,7.20
2019-03-27T17:18:22.084Z,7.53
2019-03-27T17:20:54.818Z,7.90
2019-03-27T17:23:24.439Z,8.07
2019-03-27T17:25:53.963Z,8.13
2019-03-27T17:28:23.591Z,8.87
2019-03-27T17:30:53.065Z,7.87
2019-03-27T17:33:22.771Z,7.40
2019-03-27T17:35:53.155Z,6.83
2019-03-27T17:38:22.804Z,7.70
2019-03-27T17:40:53.191Z,7.80
2019-03-27T17:43:23.648Z,7.13
2019-03-27T17:45:54.375Z,7.20
2019-03-27T17:48:23.993Z,7.10
2019-03-27T17:50:54.290Z,7.40
2019-03-27T17:53:31.538Z,7.47
2019-03-27T17:55:56.108Z,7.03
2019-03-27T17:58:26.655Z,7.80
2019-03-27T18:00:59.521Z,6.97
2019-03-27T18:03:29.058Z,8.10
2019-03-27T18:05:58.568Z,7.80
2019-03-27T18:08:28.065Z,7.50
2019-03-27T18:10:58.383Z,7.97
2019-03-27T18:13:28.857Z,8.07
2019-03-27T18:15:59.268Z,8.03
2019-03-27T18:18:28.940Z,7.43
2019-03-27T18:20:59.443Z,7.70
2019-03-27T18:23:29.914Z,8.03
2019-03-27T18:25:59.520Z,7.57
2019-03-27T18:28:29.052Z,8.20
2019-03-27T18:30:59.493Z,6.73
2019-03-27T18:33:29.113Z,7.10
2019-03-27T18:35:59.492Z,8.77
2019-03-27T18:38:29.078Z,7.43
2019-03-27T18:40:58.556Z,8.50
2019-03-27T18:43:28.926Z,8.30
2019-03-27T18:45:59.303Z,8.50
2019-03-27T18:48:28.942Z,8.40
2019-03-27T18:50:58.480Z,8.13
2019-03-27T18:53:27.998Z,7.70
2019-03-27T18:55:57.491Z,8.57
2019-03-27T18:58:27.070Z,8.47
2019-03-27T19:00:57.690Z,8.63
2019-03-27T19:03:28.169Z,8.43
2019-03-27T19:05:58.569Z,8.53
2019-03-27T19:08:28.158Z,8.73
2019-03-27T19:10:58.700Z,8.60
2019-03-27T19:13:29.038Z,8.57
2019-03-27T19:15:59.490Z,8.40
2019-03-27T19:18:29.020Z,7.40
2019-03-27T19:20:59.341Z,8.40
2019-03-27T19:23:29.908Z,8.20
2019-03-27T19:26:00.385Z,8.97
2019-03-27T19:28:30.771Z,8.63
2019-03-27T19:31:01.214Z,8.80
2019-03-27T19:33:30.855Z,8.93
2019-03-27T19:36:00.349Z,8.37
2019-03-27T19:38:29.794Z,8.87
2019-03-27T19:40:59.288Z,8.97
2019-03-27T19:43:29.601Z,8.50
2019-03-27T19:45:59.205Z,8.90
2019-03-27T19:48:28.877Z,8.30
2019-03-27T19:50:59.322Z,8.27
2019-03-27T19:53:29.093Z,9.07
2019-03-27T19:55:59.386Z,8.97
2019-03-27T19:58:28.918Z,9.50
2019-03-27T20:00:59.287Z,10.17
2019-03-27T20:03:28.857Z,9.63
2019-03-27T20:05:59.149Z,8.70
2019-03-27T20:08:29.538Z,9.67
2019-03-27T20:11:00.168Z,8.77
2019-03-27T20:13:30.597Z,9.67
2019-03-27T20:16:00.206Z,9.10
2019-03-27T20:18:30.509Z,8.80
2019-03-27T20:21:00.997Z,9.47
2019-03-27T20:23:30.915Z,10.17
2019-03-27T20:26:01.298Z,9.17
2019-03-27T20:28:30.886Z,8.90
2019-03-27T20:31:00.389Z,9.97
2019-03-27T20:33:29.857Z,9.90
2019-03-27T20:36:00.255Z,9.83
2019-03-27T20:38:29.858Z,9.80
2019-03-27T20:41:00.474Z,9.37
2019-03-27T20:43:30.006Z,8.77
2019-03-27T20:45:59.512Z,8.73
2019-03-27T20:48:30.021Z,9.03
2019-03-27T20:50:59.634Z,9.73
2019-03-27T20:53:29.038Z,8.80
2019-03-27T20:55:59.355Z,9.97
2019-03-27T20:58:28.938Z,9.10
2019-03-27T21:00:58.470Z,8.90
2019-03-27T21:03:28.838Z,10.30
2019-03-27T21:05:59.329Z,10.17
2019-03-27T21:08:29.805Z,9.10
2019-03-27T21:11:00.280Z,11.07
2019-03-27T21:13:30.733Z,10.00
2019-03-27T21:16:01.258Z,9.43
2019-03-27T21:18:31.713Z,9.53
2019-03-27T21:21:02.146Z,9.77
2019-03-27T21:23:32.653Z,9.90
2019-03-27T21:26:03.754Z,11.03
2019-03-27T21:28:35.262Z,10.10
2019-03-27T21:31:05.764Z,10.27
2019-03-27T21:33:35.323Z,10.07
2019-03-27T21:36:04.956Z,10.57
2019-03-27T21:38:35.266Z,11.30
2019-03-27T21:41:05.505Z,10.20
2019-03-27T21:43:34.933Z,11.07
2019-03-27T21:46:04.549Z,10.50
2019-03-27T21:48:34.889Z,10.70
2019-03-27T21:51:04.769Z,11.97
2019-03-27T21:53:34.298Z,11.50
2019-03-27T21:56:03.776Z,12.37
2019-03-27T21:58:34.197Z,10.63
2019-03-27T22:01:03.779Z,11.00
2019-03-27T22:03:34.101Z,11.73
2019-03-27T22:06:03.706Z,10.90
2019-03-27T22:08:33.175Z,10.90
2019-03-27T22:11:03.649Z,10.50
2019-03-27T22:13:34.167Z,10.87
2019-03-27T22:16:03.682Z,10.23
2019-03-27T22:18:33.202Z,11.90
2019-03-27T22:21:03.670Z,11.23
2019-03-27T22:23:34.174Z,10.87
2019-03-27T22:26:03.764Z,10.57
2019-03-27T22:28:34.157Z,10.80
2019-03-27T22:31:03.732Z,11.13
2019-03-27T22:33:34.064Z,11.00
2019-03-27T22:36:04.509Z,10.70
2019-03-27T22:38:34.100Z,11.50
2019-03-27T22:41:04.473Z,10.50
2019-03-27T22:43:34.963Z,10.50
2019-03-27T22:46:05.423Z,11.30
2019-03-27T22:48:34.981Z,12.43
2019-03-27T22:51:05.358Z,11.80
2019-03-27T22:53:34.884Z,11.73
2019-03-27T22:56:05.175Z,11.03
2019-03-27T22:58:34.795Z,11.03
2019-03-27T23:01:04.469Z,12.87
2019-03-27T23:03:34.889Z,10.03
2019-03-27T23:06:05.265Z,11.57
2019-03-27T23:08:34.883Z,10.97
2019-03-27T23:11:05.449Z,11.37
2019-03-27T23:13:35.939Z,11.67
2019-03-27T23:16:05.516Z,12.90
2019-03-27T23:18:35.072Z,12.07
2019-03-27T23:21:05.791Z,11.93
2019-03-27T23:23:35.393Z,10.87
2019-03-27T23:26:05.699Z,11.90
2019-03-27T23:28:35.408Z,12.20
2019-03-27T23:31:05.709Z,12.17
2019-03-27T23:33:35.215Z,12.60
2019-03-27T23:36:05.769Z,10.73
2019-03-27T23:38:35.367Z,10.70
2019-03-27T23:41:05.094Z,11.77
2019-03-27T23:43:34.529Z,10.23
2019-03-27T23:46:04.918Z,11.03
2019-03-27T23:48:35.381Z,12.30
2019-03-27T23:51:04.992Z,11.00
2019-03-27T23:53:34.531Z,10.67
2019-03-27T23:56:15.883Z,12.27
2019-03-27T23:58:36.976Z,10.53
